sensor_id;sensor_type;location;lat;lon;timestamp;pressure;altitude;pressure_sealevel;temperature;humidity
7333;BME280;3707;43.618;25.342;2023-06-24T00:00:49;99952.78;;;27.21;94.85
7333;BME280;3707;43.618;25.342;2023-06-24T00:03:17;99971.00;;;27.29;95.53
7333;BME280;3707;43.618;25.342;2023-06-24T00:05:44;99971.59;;;27.18;95.35
7333;BME280;3707;43.618;25.342;2023-06-24T00:08:16;99966.44;;;27.31;95.60
7333;BME280;3707;43.618;25.342;2023-06-24T00:10:44;99960.72;;;27.05;96.08
7333;BME280;3707;43.618;25.342;2023-06-24T00:13:11;99969.69;;;27.20;95.15
7333;BME280;3707;43.618;25.342;2023-06-24T00:15:38;99953.38;;;27.10;95.16
7333;BME280;3707;43.618;25.342;2023-06-24T00:18:08;99941.34;;;27.03;94.94
7333;BME280;3707;43.618;25.342;2023-06-24T00:20:35;99959.28;;;27.16;95.10
7333;BME280;3707;43.618;25.342;2023-06-24T00:23:02;99932.13;;;26.93;95.21
7333;BME280;3707;43.618;25.342;2023-06-24T00:25:30;99959.28;;;27.16;95.33
7333;BME280;3707;43.618;25.342;2023-06-24T00:27:57;99960.06;;;27.18;94.82
7333;BME280;3707;43.618;25.342;2023-06-24T00:30:26;99944.53;;;27.10;94.90
7333;BME280;3707;43.618;25.342;2023-06-24T00:32:53;99918.22;;;26.88;95.69
7333;BME280;3707;43.618;25.342;2023-06-24T00:35:19;99933.66;;;26.97;94.34
7333;BME280;3707;43.618;25.342;2023-06-24T00:37:46;99943.13;;;27.03;94.50
7333;BME280;3707;43.618;25.342;2023-06-24T00:40:13;99946.94;;;27.15;94.29
7333;BME280;3707;43.618;25.342;2023-06-24T00:42:44;99943.00;;;27.22;93.30
7333;BME280;3707;43.618;25.342;2023-06-24T00:45:12;99912.78;;;26.90;93.86
7333;BME280;3707;43.618;25.342;2023-06-24T00:47:39;99936.59;;;27.08;92.92
7333;BME280;3707;43.618;25.342;2023-06-24T00:50:07;99939.19;;;27.10;93.18
7333;BME280;3707;43.618;25.342;2023-06-24T00:52:34;99941.41;;;27.02;93.15
7333;BME280;3707;43.618;25.342;2023-06-24T00:55:03;99944.00;;;27.03;92.96
7333;BME280;3707;43.618;25.342;2023-06-24T00:57:30;99946.38;;;26.92;93.42
7333;BME280;3707;43.618;25.342;2023-06-24T00:59:59;99942.44;;;26.99;93.36
7333;BME280;3707;43.618;25.342;2023-06-24T01:02:26;99944.31;;;26.97;92.48
7333;BME280;3707;43.618;25.342;2023-06-24T01:04:53;99943.38;;;26.98;92.01
7333;BME280;3707;43.618;25.342;2023-06-24T01:07:20;99945.53;;;26.92;92.99
7333;BME280;3707;43.618;25.342;2023-06-24T01:09:47;99926.22;;;26.71;92.89
7333;BME280;3707;43.618;25.342;2023-06-24T01:12:14;99873.63;;;26.43;92.33
7333;BME280;3707;43.618;25.342;2023-06-24T01:14:41;99936.22;;;26.83;91.10
7333;BME280;3707;43.618;25.342;2023-06-24T01:17:13;99926.78;;;26.93;91.99
7333;BME280;3707;43.618;25.342;2023-06-24T01:19:54;99924.06;;;26.95;91.07
7333;BME280;3707;43.618;25.342;2023-06-24T01:22:48;99928.63;;;26.93;90.19
7333;BME280;3707;43.618;25.342;2023-06-24T01:25:33;99935.13;;;26.87;90.19
7333;BME280;3707;43.618;25.342;2023-06-24T01:28:30;99926.97;;;26.90;89.69
7333;BME280;3707;43.618;25.342;2023-06-24T01:34:14;99926.53;;;26.82;90.53
7333;BME280;3707;43.618;25.342;2023-06-24T01:36:46;99937.22;;;26.81;90.48
7333;BME280;3707;43.618;25.342;2023-06-24T01:39:16;99928.63;;;26.76;90.72
7333;BME280;3707;43.618;25.342;2023-06-24T01:41:48;99919.94;;;26.72;90.22
7333;BME280;3707;43.618;25.342;2023-06-24T01:44:18;99913.22;;;26.65;89.99
7333;BME280;3707;43.618;25.342;2023-06-24T01:46:46;99917.63;;;26.66;89.94
7333;BME280;3707;43.618;25.342;2023-06-24T01:49:17;99922.34;;;26.61;89.70
7333;BME280;3707;43.618;25.342;2023-06-24T01:51:47;99924.56;;;26.69;89.01
7333;BME280;3707;43.618;25.342;2023-06-24T01:54:15;99903.59;;;26.47;89.35
7333;BME280;3707;43.618;25.342;2023-06-24T01:56:47;99938.91;;;26.66;88.19
7333;BME280;3707;43.618;25.342;2023-06-24T01:59:16;99943.88;;;26.72;87.95
7333;BME280;3707;43.618;25.342;2023-06-24T02:01:44;99942.94;;;26.57;87.96
7333;BME280;3707;43.618;25.342;2023-06-24T02:04:13;99947.13;;;26.61;88.04
7333;BME280;3707;43.618;25.342;2023-06-24T02:06:42;99944.72;;;26.57;88.43
7333;BME280;3707;43.618;25.342;2023-06-24T02:09:10;99950.66;;;26.45;88.55
7333;BME280;3707;43.618;25.342;2023-06-24T02:11:38;99960.78;;;26.38;88.95
7333;BME280;3707;43.618;25.342;2023-06-24T02:14:06;99960.22;;;26.49;88.45
7333;BME280;3707;43.618;25.342;2023-06-24T02:16:35;99958.47;;;26.48;87.67
7333;BME280;3707;43.618;25.342;2023-06-24T02:19:03;99962.50;;;26.39;87.91
7333;BME280;3707;43.618;25.342;2023-06-24T02:21:31;99962.50;;;26.39;87.72
7333;BME280;3707;43.618;25.342;2023-06-24T02:24:00;99969.75;;;26.53;87.79
7333;BME280;3707;43.618;25.342;2023-06-24T02:26:27;99945.38;;;26.28;86.80
7333;BME280;3707;43.618;25.342;2023-06-24T02:28:54;99972.81;;;26.28;88.43
7333;BME280;3707;43.618;25.342;2023-06-24T02:31:22;99976.56;;;26.41;87.25
7333;BME280;3707;43.618;25.342;2023-06-24T02:33:49;99976.56;;;26.24;87.95
7333;BME280;3707;43.618;25.342;2023-06-24T02:36:16;99988.78;;;26.28;87.58
7333;BME280;3707;43.618;25.342;2023-06-24T02:38:44;100001.97;;;26.30;87.53
7333;BME280;3707;43.618;25.342;2023-06-24T02:41:12;100006.13;;;26.35;87.47
7333;BME280;3707;43.618;25.342;2023-06-24T02:43:39;99989.44;;;26.14;86.92
7333;BME280;3707;43.618;25.342;2023-06-24T02:46:07;100001.66;;;26.53;85.84
7333;BME280;3707;43.618;25.342;2023-06-24T02:48:36;100007.00;;;26.53;87.12
7333;BME280;3707;43.618;25.342;2023-06-24T02:51:04;100010.09;;;26.44;88.56
7333;BME280;3707;43.618;25.342;2023-06-24T02:53:33;100015.91;;;26.52;88.72
7333;BME280;3707;43.618;25.342;2023-06-24T02:56:01;100011.97;;;26.59;85.28
7333;BME280;3707;43.618;25.342;2023-06-24T02:58:31;99992.88;;;26.51;86.90
7333;BME280;3707;43.618;25.342;2023-06-24T03:00:59;100022.56;;;26.60;84.94
7333;BME280;3707;43.618;25.342;2023-06-24T03:03:26;100018.69;;;26.66;84.39
7333;BME280;3707;43.618;25.342;2023-06-24T03:05:54;100027.63;;;26.65;86.85
7333;BME280;3707;43.618;25.342;2023-06-24T03:08:22;100025.81;;;26.83;87.95
7333;BME280;3707;43.618;25.342;2023-06-24T03:10:50;100030.91;;;26.87;87.75
7333;BME280;3707;43.618;25.342;2023-06-24T03:13:17;100036.19;;;27.04;85.45
7333;BME280;3707;43.618;25.342;2023-06-24T03:15:45;100028.56;;;27.47;84.30
7333;BME280;3707;43.618;25.342;2023-06-24T03:18:12;99931.97;;;26.96;87.82
7333;BME280;3707;43.618;25.342;2023-06-24T03:20:39;100042.63;;;27.82;87.05
7333;BME280;3707;43.618;25.342;2023-06-24T03:23:06;100046.47;;;28.07;86.97
7333;BME280;3707;43.618;25.342;2023-06-24T03:25:33;100050.72;;;28.41;85.37
7333;BME280;3707;43.618;25.342;2023-06-24T03:28:00;100061.59;;;28.68;81.06
7333;BME280;3707;43.618;25.342;2023-06-24T03:30:29;100052.22;;;29.05;71.97
7333;BME280;3707;43.618;25.342;2023-06-24T03:32:58;100049.25;;;29.66;68.42
7333;BME280;3707;43.618;25.342;2023-06-24T03:35:24;100046.47;;;29.96;64.67
7333;BME280;3707;43.618;25.342;2023-06-24T03:37:51;100047.63;;;30.45;65.98
7333;BME280;3707;43.618;25.342;2023-06-24T03:40:18;100041.16;;;31.00;61.62
7333;BME280;3707;43.618;25.342;2023-06-24T03:42:45;100054.22;;;31.55;60.95
7333;BME280;3707;43.618;25.342;2023-06-24T03:45:11;100063.25;;;31.90;61.04
7333;BME280;3707;43.618;25.342;2023-06-24T03:47:38;100029.56;;;31.86;58.49
7333;BME280;3707;43.618;25.342;2023-06-24T03:50:07;100067.94;;;32.60;57.78
7333;BME280;3707;43.618;25.342;2023-06-24T03:52:34;100078.03;;;33.02;56.47
7333;BME280;3707;43.618;25.342;2023-06-24T03:55:01;100089.97;;;33.44;55.94
7333;BME280;3707;43.618;25.342;2023-06-24T03:57:29;100083.59;;;33.78;52.67
7333;BME280;3707;43.618;25.342;2023-06-24T03:59:56;100062.88;;;34.12;51.22
7333;BME280;3707;43.618;25.342;2023-06-24T04:02:23;100095.22;;;34.44;51.20
7333;BME280;3707;43.618;25.342;2023-06-24T04:04:50;100094.28;;;34.34;54.96
7333;BME280;3707;43.618;25.342;2023-06-24T04:07:18;100097.06;;;34.75;50.90
7333;BME280;3707;43.618;25.342;2023-06-24T04:09:54;100101.16;;;34.91;49.96
7333;BME280;3707;43.618;25.342;2023-06-24T04:12:21;100085.78;;;35.23;47.34
7333;BME280;3707;43.618;25.342;2023-06-24T04:14:48;100088.84;;;35.69;46.18
7333;BME280;3707;43.618;25.342;2023-06-24T04:17:15;100109.97;;;35.95;45.69
7333;BME280;3707;43.618;25.342;2023-06-24T04:19:41;100102.72;;;35.95;45.13
7333;BME280;3707;43.618;25.342;2023-06-24T04:22:08;100102.09;;;36.22;44.36
7333;BME280;3707;43.618;25.342;2023-06-24T04:24:36;100039.09;;;36.12;43.18
7333;BME280;3707;43.618;25.342;2023-06-24T04:27:05;100099.72;;;36.67;42.17
7333;BME280;3707;43.618;25.342;2023-06-24T04:29:32;100097.53;;;36.32;42.34
7333;BME280;3707;43.618;25.342;2023-06-24T04:32:00;100088.94;;;35.98;42.25
7333;BME280;3707;43.618;25.342;2023-06-24T04:34:26;100084.75;;;35.45;43.20
7333;BME280;3707;43.618;25.342;2023-06-24T04:36:53;100087.50;;;35.85;43.15
7333;BME280;3707;43.618;25.342;2023-06-24T04:39:20;100088.56;;;36.12;42.42
7333;BME280;3707;43.618;25.342;2023-06-24T04:41:48;100095.72;;;36.52;41.20
7333;BME280;3707;43.618;25.342;2023-06-24T04:44:15;100098.97;;;36.94;40.59
7333;BME280;3707;43.618;25.342;2023-06-24T04:46:42;100087.03;;;36.87;42.83
7333;BME280;3707;43.618;25.342;2023-06-24T04:49:08;100088.75;;;36.68;43.00
7333;BME280;3707;43.618;25.342;2023-06-24T04:51:35;100084.91;;;37.09;42.91
7333;BME280;3707;43.618;25.342;2023-06-24T04:54:02;100086.59;;;37.57;43.85
7333;BME280;3707;43.618;25.342;2023-06-24T04:56:29;100104.50;;;37.67;42.64
7333;BME280;3707;43.618;25.342;2023-06-24T04:58:57;100099.84;;;38.32;41.50
7333;BME280;3707;43.618;25.342;2023-06-24T05:01:24;100088.31;;;37.58;40.86
7333;BME280;3707;43.618;25.342;2023-06-24T05:03:51;100095.19;;;37.52;40.46
7333;BME280;3707;43.618;25.342;2023-06-24T05:06:18;100089.75;;;36.87;41.73
7333;BME280;3707;43.618;25.342;2023-06-24T05:08:44;100078.22;;;36.27;44.36
7333;BME280;3707;43.618;25.342;2023-06-24T05:11:11;100077.19;;;36.09;43.67
7333;BME280;3707;43.618;25.342;2023-06-24T05:13:38;100078.53;;;36.62;42.90
7333;BME280;3707;43.618;25.342;2023-06-24T05:16:06;100078.78;;;36.78;42.24
7333;BME280;3707;43.618;25.342;2023-06-24T05:18:33;100081.94;;;36.74;40.88
7333;BME280;3707;43.618;25.342;2023-06-24T05:20:59;100073.88;;;34.31;45.11
7333;BME280;3707;43.618;25.342;2023-06-24T05:23:26;100070.72;;;34.15;46.21
7333;BME280;3707;43.618;25.342;2023-06-24T05:25:53;100057.34;;;34.25;46.28
7333;BME280;3707;43.618;25.342;2023-06-24T05:28:20;100062.94;;;34.85;46.62
7333;BME280;3707;43.618;25.342;2023-06-24T05:30:47;100073.13;;;35.84;43.45
7333;BME280;3707;43.618;25.342;2023-06-24T05:33:15;100074.25;;;36.69;42.32
7333;BME280;3707;43.618;25.342;2023-06-24T05:35:42;100088.19;;;36.74;42.14
7333;BME280;3707;43.618;25.342;2023-06-24T05:38:09;100083.03;;;36.33;41.98
7333;BME280;3707;43.618;25.342;2023-06-24T05:40:36;100077.66;;;35.13;45.99
7333;BME280;3707;43.618;25.342;2023-06-24T05:43:03;100081.75;;;35.68;44.79
7333;BME280;3707;43.618;25.342;2023-06-24T05:45:30;100092.63;;;36.56;42.93
7333;BME280;3707;43.618;25.342;2023-06-24T05:47:57;100111.22;;;37.17;41.29
7333;BME280;3707;43.618;25.342;2023-06-24T05:50:25;100111.50;;;37.60;40.86
7333;BME280;3707;43.618;25.342;2023-06-24T05:52:52;100112.84;;;37.56;40.96
7333;BME280;3707;43.618;25.342;2023-06-24T05:55:18;100097.78;;;37.25;40.85
7333;BME280;3707;43.618;25.342;2023-06-24T05:57:45;100114.16;;;37.33;40.93
7333;BME280;3707;43.618;25.342;2023-06-24T06:00:13;100120.00;;;37.38;41.38
7333;BME280;3707;43.618;25.342;2023-06-24T06:02:40;100115.81;;;37.53;41.34
7333;BME280;3707;43.618;25.342;2023-06-24T06:05:07;100127.50;;;37.54;42.31
7333;BME280;3707;43.618;25.342;2023-06-24T06:07:35;100129.69;;;36.35;44.19
7333;BME280;3707;43.618;25.342;2023-06-24T06:10:04;100116.75;;;35.89;45.54
7333;BME280;3707;43.618;25.342;2023-06-24T06:12:31;100126.25;;;36.33;45.97
7333;BME280;3707;43.618;25.342;2023-06-24T06:14:58;100130.28;;;36.48;43.31
7333;BME280;3707;43.618;25.342;2023-06-24T06:17:25;100061.66;;;34.80;45.19
7333;BME280;3707;43.618;25.342;2023-06-24T06:19:52;100129.88;;;35.63;45.01
7333;BME280;3707;43.618;25.342;2023-06-24T06:22:18;100112.16;;;35.50;45.71
7333;BME280;3707;43.618;25.342;2023-06-24T06:24:46;100132.94;;;35.89;44.62
7333;BME280;3707;43.618;25.342;2023-06-24T06:27:13;100130.97;;;35.82;45.33
7333;BME280;3707;43.618;25.342;2023-06-24T06:29:40;100125.38;;;35.73;44.25
7333;BME280;3707;43.618;25.342;2023-06-24T06:32:07;100132.13;;;35.38;45.00
7333;BME280;3707;43.618;25.342;2023-06-24T06:34:34;100133.41;;;35.13;46.15
7333;BME280;3707;43.618;25.342;2023-06-24T06:37:02;100133.28;;;35.35;45.77
7333;BME280;3707;43.618;25.342;2023-06-24T06:39:28;100123.47;;;35.34;45.91
7333;BME280;3707;43.618;25.342;2023-06-24T06:41:57;100140.41;;;35.04;46.05
7333;BME280;3707;43.618;25.342;2023-06-24T06:44:23;100141.00;;;34.44;47.27
7333;BME280;3707;43.618;25.342;2023-06-24T06:46:50;100145.13;;;34.16;49.61
7333;BME280;3707;43.618;25.342;2023-06-24T06:49:17;100135.84;;;33.65;50.26
7333;BME280;3707;43.618;25.342;2023-06-24T06:51:43;100136.53;;;33.45;52.72
7333;BME280;3707;43.618;25.342;2023-06-24T06:54:10;100134.78;;;33.21;52.41
7333;BME280;3707;43.618;25.342;2023-06-24T06:56:37;100140.06;;;33.23;52.11
7333;BME280;3707;43.618;25.342;2023-06-24T06:59:06;100140.78;;;33.25;52.11
7333;BME280;3707;43.618;25.342;2023-06-24T07:01:33;100132.28;;;32.96;53.03
7333;BME280;3707;43.618;25.342;2023-06-24T07:04:00;100109.81;;;33.08;52.60
7333;BME280;3707;43.618;25.342;2023-06-24T07:06:26;100133.72;;;33.24;52.39
7333;BME280;3707;43.618;25.342;2023-06-24T07:08:53;100122.34;;;33.31;52.68
7333;BME280;3707;43.618;25.342;2023-06-24T07:11:20;100127.34;;;33.25;53.80
7333;BME280;3707;43.618;25.342;2023-06-24T07:13:47;100130.06;;;33.47;53.07
7333;BME280;3707;43.618;25.342;2023-06-24T07:16:17;100124.97;;;33.77;52.70
7333;BME280;3707;43.618;25.342;2023-06-24T07:18:44;100122.03;;;33.69;53.04
7333;BME280;3707;43.618;25.342;2023-06-24T07:21:11;100118.97;;;33.85;52.27
7333;BME280;3707;43.618;25.342;2023-06-24T07:23:38;100109.28;;;33.94;52.62
7333;BME280;3707;43.618;25.342;2023-06-24T07:26:04;100080.91;;;33.89;52.73
7333;BME280;3707;43.618;25.342;2023-06-24T07:28:31;100104.66;;;33.84;52.71
7333;BME280;3707;43.618;25.342;2023-06-24T07:30:58;100095.63;;;33.74;54.27
7333;BME280;3707;43.618;25.342;2023-06-24T07:33:26;100082.25;;;33.62;54.11
7333;BME280;3707;43.618;25.342;2023-06-24T07:35:56;100086.41;;;33.55;53.14
7333;BME280;3707;43.618;25.342;2023-06-24T07:38:22;100078.00;;;33.48;53.04
7333;BME280;3707;43.618;25.342;2023-06-24T07:40:49;100068.19;;;33.92;53.75
7333;BME280;3707;43.618;25.342;2023-06-24T07:43:16;100089.97;;;34.00;55.02
7333;BME280;3707;43.618;25.342;2023-06-24T07:45:43;100064.75;;;33.89;51.32
7333;BME280;3707;43.618;25.342;2023-06-24T07:48:09;100073.28;;;34.28;51.89
7333;BME280;3707;43.618;25.342;2023-06-24T07:50:38;100090.38;;;34.38;50.54
7333;BME280;3707;43.618;25.342;2023-06-24T07:53:04;100058.75;;;34.40;51.16
7333;BME280;3707;43.618;25.342;2023-06-24T07:55:31;100085.81;;;33.84;50.66
7333;BME280;3707;43.618;25.342;2023-06-24T07:57:58;100098.41;;;33.84;49.29
7333;BME280;3707;43.618;25.342;2023-06-24T08:00:25;100086.47;;;34.31;50.34
7333;BME280;3707;43.618;25.342;2023-06-24T08:02:52;100081.47;;;34.26;49.80
7333;BME280;3707;43.618;25.342;2023-06-24T08:05:20;100108.28;;;34.06;45.55
7333;BME280;3707;43.618;25.342;2023-06-24T08:07:50;100102.78;;;34.18;45.99
7333;BME280;3707;43.618;25.342;2023-06-24T08:10:17;100103.56;;;34.41;45.43
7333;BME280;3707;43.618;25.342;2023-06-24T08:12:44;100100.53;;;34.34;47.66
7333;BME280;3707;43.618;25.342;2023-06-24T08:15:11;100078.06;;;34.24;45.34
7333;BME280;3707;43.618;25.342;2023-06-24T08:17:37;100101.16;;;34.27;43.91
7333;BME280;3707;43.618;25.342;2023-06-24T08:20:05;100090.22;;;34.40;45.86
7333;BME280;3707;43.618;25.342;2023-06-24T08:22:32;100089.19;;;34.52;45.59
7333;BME280;3707;43.618;25.342;2023-06-24T08:25:00;100093.78;;;34.61;44.40
7333;BME280;3707;43.618;25.342;2023-06-24T08:27:26;100077.09;;;34.46;45.13
7333;BME280;3707;43.618;25.342;2023-06-24T08:29:53;100026.38;;;34.30;45.18
7333;BME280;3707;43.618;25.342;2023-06-24T08:32:20;100095.50;;;34.73;44.14
7333;BME280;3707;43.618;25.342;2023-06-24T08:34:47;100094.41;;;34.32;43.98
7333;BME280;3707;43.618;25.342;2023-06-24T08:37:13;100088.66;;;34.58;43.11
7333;BME280;3707;43.618;25.342;2023-06-24T08:39:40;100087.28;;;34.74;42.22
7333;BME280;3707;43.618;25.342;2023-06-24T08:42:08;100090.16;;;34.82;43.20
7333;BME280;3707;43.618;25.342;2023-06-24T08:44:35;100091.63;;;34.87;43.58
7333;BME280;3707;43.618;25.342;2023-06-24T08:47:02;100091.41;;;34.78;42.90
7333;BME280;3707;43.618;25.342;2023-06-24T08:49:30;100081.44;;;34.90;43.40
7333;BME280;3707;43.618;25.342;2023-06-24T08:52:00;100091.59;;;35.07;43.40
7333;BME280;3707;43.618;25.342;2023-06-24T08:54:30;100097.66;;;35.00;41.69
7333;BME280;3707;43.618;25.342;2023-06-24T08:56:57;100101.16;;;35.32;42.01
7333;BME280;3707;43.618;25.342;2023-06-24T08:59:27;100082.91;;;35.45;40.25
7333;BME280;3707;43.618;25.342;2023-06-24T09:01:53;100093.88;;;35.02;40.33
7333;BME280;3707;43.618;25.342;2023-06-24T09:04:20;100087.31;;;35.16;41.08
7333;BME280;3707;43.618;25.342;2023-06-24T09:06:48;100086.59;;;35.14;40.07
7333;BME280;3707;43.618;25.342;2023-06-24T09:09:18;100083.28;;;35.31;41.55
7333;BME280;3707;43.618;25.342;2023-06-24T09:11:51;100083.03;;;35.44;39.93
7333;BME280;3707;43.618;25.342;2023-06-24T09:14:19;100077.50;;;35.15;40.01
7333;BME280;3707;43.618;25.342;2023-06-24T09:16:52;100083.66;;;35.06;37.09
7333;BME280;3707;43.618;25.342;2023-06-24T09:19:20;100086.59;;;35.14;35.41
7333;BME280;3707;43.618;25.342;2023-06-24T09:21:47;100083.19;;;35.21;36.64
7333;BME280;3707;43.618;25.342;2023-06-24T09:24:14;100090.03;;;35.25;37.28
7333;BME280;3707;43.618;25.342;2023-06-24T09:26:42;100075.47;;;35.28;36.69
7333;BME280;3707;43.618;25.342;2023-06-24T09:29:10;100080.50;;;35.01;36.83
7333;BME280;3707;43.618;25.342;2023-06-24T09:31:46;100052.59;;;34.81;37.22
7333;BME280;3707;43.618;25.342;2023-06-24T09:34:15;100083.00;;;35.34;37.42
7333;BME280;3707;43.618;25.342;2023-06-24T09:36:43;100064.56;;;35.39;37.38
7333;BME280;3707;43.618;25.342;2023-06-24T09:39:11;100077.59;;;35.64;37.93
7333;BME280;3707;43.618;25.342;2023-06-24T09:41:40;100075.34;;;35.39;37.76
7333;BME280;3707;43.618;25.342;2023-06-24T09:44:08;100077.06;;;35.40;38.74
7333;BME280;3707;43.618;25.342;2023-06-24T09:46:35;100073.38;;;35.41;38.33
7333;BME280;3707;43.618;25.342;2023-06-24T09:49:03;100064.41;;;35.61;38.30
7333;BME280;3707;43.618;25.342;2023-06-24T09:51:32;100058.72;;;35.34;38.11
7333;BME280;3707;43.618;25.342;2023-06-24T09:54:02;100056.03;;;35.34;37.99
7333;BME280;3707;43.618;25.342;2023-06-24T09:56:30;100074.16;;;35.32;36.46
7333;BME280;3707;43.618;25.342;2023-06-24T09:58:58;100067.44;;;35.47;36.29
7333;BME280;3707;43.618;25.342;2023-06-24T10:01:25;100073.19;;;35.33;35.46
7333;BME280;3707;43.618;25.342;2023-06-24T10:03:51;100063.56;;;35.10;35.89
7333;BME280;3707;43.618;25.342;2023-06-24T10:06:19;100053.53;;;35.42;36.72
7333;BME280;3707;43.618;25.342;2023-06-24T10:08:47;100061.25;;;35.56;37.49
7333;BME280;3707;43.618;25.342;2023-06-24T10:11:14;100060.22;;;35.97;35.71
7333;BME280;3707;43.618;25.342;2023-06-24T10:13:41;100048.06;;;36.12;35.71
7333;BME280;3707;43.618;25.342;2023-06-24T10:16:08;100059.19;;;35.79;36.02
7333;BME280;3707;43.618;25.342;2023-06-24T10:18:36;100068.31;;;35.97;33.98
7333;BME280;3707;43.618;25.342;2023-06-24T10:21:03;100059.72;;;36.13;34.95
7333;BME280;3707;43.618;25.342;2023-06-24T10:23:32;100060.13;;;36.08;34.64
7333;BME280;3707;43.618;25.342;2023-06-24T10:26:01;100044.19;;;35.96;35.64
7333;BME280;3707;43.618;25.342;2023-06-24T10:29:08;100052.06;;;36.37;33.78
7333;BME280;3707;43.618;25.342;2023-06-24T10:31:51;100055.47;;;36.29;34.85
7333;BME280;3707;43.618;25.342;2023-06-24T10:34:31;100049.78;;;36.33;35.51
7333;BME280;3707;43.618;25.342;2023-06-24T10:36:59;100046.31;;;36.02;34.69
7333;BME280;3707;43.618;25.342;2023-06-24T10:39:37;100061.41;;;36.14;33.88
7333;BME280;3707;43.618;25.342;2023-06-24T10:42:36;100058.28;;;36.18;34.08
7333;BME280;3707;43.618;25.342;2023-06-24T10:45:14;100048.63;;;36.16;34.65
7333;BME280;3707;43.618;25.342;2023-06-24T10:47:42;100056.78;;;35.86;34.72
7333;BME280;3707;43.618;25.342;2023-06-24T10:50:10;100030.19;;;35.71;34.43
7333;BME280;3707;43.618;25.342;2023-06-24T10:52:38;100046.16;;;35.84;35.40
7333;BME280;3707;43.618;25.342;2023-06-24T10:55:06;100049.16;;;36.00;33.92
7333;BME280;3707;43.618;25.342;2023-06-24T10:57:35;100040.56;;;35.66;34.53
7333;BME280;3707;43.618;25.342;2023-06-24T11:00:03;100036.44;;;35.72;34.07
7333;BME280;3707;43.618;25.342;2023-06-24T11:02:29;100028.41;;;35.82;33.94
7333;BME280;3707;43.618;25.342;2023-06-24T11:05:00;100034.28;;;36.25;34.26
7333;BME280;3707;43.618;25.342;2023-06-24T11:07:28;100019.91;;;36.44;33.44
7333;BME280;3707;43.618;25.342;2023-06-24T11:09:58;100033.56;;;36.23;31.78
7333;BME280;3707;43.618;25.342;2023-06-24T11:12:26;100022.75;;;36.33;32.56
7333;BME280;3707;43.618;25.342;2023-06-24T11:14:57;100021.59;;;36.54;30.62
7333;BME280;3707;43.618;25.342;2023-06-24T11:17:24;100006.97;;;36.18;32.29
7333;BME280;3707;43.618;25.342;2023-06-24T11:19:52;100030.75;;;36.63;32.65
7333;BME280;3707;43.618;25.342;2023-06-24T11:22:19;100017.66;;;36.58;31.76
7333;BME280;3707;43.618;25.342;2023-06-24T11:24:46;100008.84;;;36.66;31.64
7333;BME280;3707;43.618;25.342;2023-06-24T11:27:12;100015.63;;;36.80;31.13
7333;BME280;3707;43.618;25.342;2023-06-24T11:29:39;100012.53;;;36.46;32.65
7333;BME280;3707;43.618;25.342;2023-06-24T11:32:08;100013.97;;;36.59;32.91
7333;BME280;3707;43.618;25.342;2023-06-24T11:34:36;100002.69;;;36.54;31.98
7333;BME280;3707;43.618;25.342;2023-06-24T11:37:11;99997.91;;;36.10;31.85
7333;BME280;3707;43.618;25.342;2023-06-24T11:39:37;99990.31;;;35.94;32.89
7333;BME280;3707;43.618;25.342;2023-06-24T11:42:06;99980.53;;;36.03;32.67
7333;BME280;3707;43.618;25.342;2023-06-24T11:44:33;99983.81;;;36.16;32.08
7333;BME280;3707;43.618;25.342;2023-06-24T11:47:04;99968.75;;;36.42;32.77
7333;BME280;3707;43.618;25.342;2023-06-24T11:49:47;99984.97;;;36.42;32.34
7333;BME280;3707;43.618;25.342;2023-06-24T11:52:14;99963.03;;;36.07;33.00
7333;BME280;3707;43.618;25.342;2023-06-24T11:54:41;99955.69;;;36.28;32.15
7333;BME280;3707;43.618;25.342;2023-06-24T11:57:08;99966.44;;;36.47;31.84
7333;BME280;3707;43.618;25.342;2023-06-24T11:59:35;99966.16;;;36.69;32.67
7333;BME280;3707;43.618;25.342;2023-06-24T12:02:03;99965.03;;;36.53;31.59
7333;BME280;3707;43.618;25.342;2023-06-24T12:04:30;99953.38;;;36.52;31.91
7333;BME280;3707;43.618;25.342;2023-06-24T12:06:58;99936.53;;;36.78;31.79
7333;BME280;3707;43.618;25.342;2023-06-24T12:09:26;99947.84;;;36.44;30.87
7333;BME280;3707;43.618;25.342;2023-06-24T12:11:53;99940.03;;;36.22;31.09
7333;BME280;3707;43.618;25.342;2023-06-24T12:14:19;99942.97;;;36.57;31.76
7333;BME280;3707;43.618;25.342;2023-06-24T12:16:46;99932.19;;;36.57;30.99
7333;BME280;3707;43.618;25.342;2023-06-24T12:19:13;99945.38;;;36.70;30.75
7333;BME280;3707;43.618;25.342;2023-06-24T12:21:40;99944.22;;;36.72;31.07
7333;BME280;3707;43.618;25.342;2023-06-24T12:24:08;99946.25;;;36.61;31.08
7333;BME280;3707;43.618;25.342;2023-06-24T12:26:35;99936.28;;;36.61;31.38
7333;BME280;3707;43.618;25.342;2023-06-24T12:29:02;99937.59;;;36.57;30.56
7333;BME280;3707;43.618;25.342;2023-06-24T12:31:30;99942.97;;;36.57;30.98
7333;BME280;3707;43.618;25.342;2023-06-24T12:33:56;99937.03;;;36.25;31.71
7333;BME280;3707;43.618;25.342;2023-06-24T12:36:23;99937.16;;;36.52;31.72
7333;BME280;3707;43.618;25.342;2023-06-24T12:38:50;99936.81;;;36.74;30.91
7333;BME280;3707;43.618;25.342;2023-06-24T12:41:18;99935.69;;;36.67;31.13
7333;BME280;3707;43.618;25.342;2023-06-24T12:43:45;99934.88;;;36.67;31.90
7333;BME280;3707;43.618;25.342;2023-06-24T12:46:12;99938.84;;;36.53;31.00
7333;BME280;3707;43.618;25.342;2023-06-24T12:48:38;99938.78;;;36.92;31.21
7333;BME280;3707;43.618;25.342;2023-06-24T12:51:05;99936.59;;;36.49;30.92
7333;BME280;3707;43.618;25.342;2023-06-24T12:53:32;99935.75;;;36.48;30.67
7333;BME280;3707;43.618;25.342;2023-06-24T12:55:59;99931.63;;;36.44;30.86
7333;BME280;3707;43.618;25.342;2023-06-24T12:58:27;99943.59;;;36.22;31.43
7333;BME280;3707;43.618;25.342;2023-06-24T13:00:53;99934.63;;;36.41;31.63
7333;BME280;3707;43.618;25.342;2023-06-24T13:03:20;99933.13;;;36.75;30.18
7333;BME280;3707;43.618;25.342;2023-06-24T13:05:47;99931.88;;;37.07;30.49
7333;BME280;3707;43.618;25.342;2023-06-24T13:08:14;99861.81;;;36.49;29.56
7333;BME280;3707;43.618;25.342;2023-06-24T13:10:41;99924.13;;;36.85;29.49